sensor_id;sensor_type;location;lat;lon;timestamp;temperature;humidity
16968;DHT22;64862;54.398;10.126;2023-03-17T00:09:40;7.40;99.90
16968;DHT22;64862;54.398;10.126;2023-03-17T00:19:43;7.40;99.90
16968;DHT22;64862;54.398;10.126;2023-03-17T00:29:45;7.40;99.90
16968;DHT22;64862;54.398;10.126;2023-03-17T00:39:49;7.20;99.90
16968;DHT22;64862;54.398;10.126;2023-03-17T00:49:51;7.10;99.90
16968;DHT22;64862;54.398;10.126;2023-03-17T00:59:56;7.00;99.90
16968;DHT22;64862;54.398;10.126;2023-03-17T01:09:58;6.80;99.90
16968;DHT22;64862;54.398;10.126;2023-03-17T01:20:02;6.60;99.90
16968;DHT22;64862;54.398;10.126;2023-03-17T01:30:08;6.60;99.90
16968;DHT22;64862;54.398;10.126;2023-03-17T01:40:17;6.60;99.90
16968;DHT22;64862;54.398;10.126;2023-03-17T01:50:20;6.60;99.90
16968;DHT22;64862;54.398;10.126;2023-03-17T02:00:24;6.60;99.90
16968;DHT22;64862;54.398;10.126;2023-03-17T02:10:28;6.50;99.90
16968;DHT22;64862;54.398;10.126;2023-03-17T02:31:17;6.20;99.90
16968;DHT22;64862;54.398;10.126;2023-03-17T02:41:19;6.20;99.90
16968;DHT22;64862;54.398;10.126;2023-03-17T02:51:22;6.10;99.90
16968;DHT22;64862;54.398;10.126;2023-03-17T03:01:24;6.10;99.90
16968;DHT22;64862;54.398;10.126;2023-03-17T03:11:28;6.10;99.90
16968;DHT22;64862;54.398;10.126;2023-03-17T03:21:30;6.20;99.90
16968;DHT22;64862;54.398;10.126;2023-03-17T03:31:34;6.20;99.90
16968;DHT22;64862;54.398;10.126;2023-03-17T03:41:36;6.20;99.90
16968;DHT22;64862;54.398;10.126;2023-03-17T03:51:39;6.30;99.90
16968;DHT22;64862;54.398;10.126;2023-03-17T04:01:41;6.30;99.90
16968;DHT22;64862;54.398;10.126;2023-03-17T04:11:44;6.30;99.90
16968;DHT22;64862;54.398;10.126;2023-03-17T04:21:47;6.30;99.90
16968;DHT22;64862;54.398;10.126;2023-03-17T04:31:50;6.20;99.90
16968;DHT22;64862;54.398;10.126;2023-03-17T04:41:52;6.30;99.90
16968;DHT22;64862;54.398;10.126;2023-03-17T04:51:56;6.30;99.90
16968;DHT22;64862;54.398;10.126;2023-03-17T05:01:57;6.30;99.90
16968;DHT22;64862;54.398;10.126;2023-03-17T05:12:01;6.20;99.90
16968;DHT22;64862;54.398;10.126;2023-03-17T05:22:03;6.10;99.90
16968;DHT22;64862;54.398;10.126;2023-03-17T05:32:06;6.00;99.90
16968;DHT22;64862;54.398;10.126;2023-03-17T05:42:08;6.10;99.90
16968;DHT22;64862;54.398;10.126;2023-03-17T05:52:12;6.00;99.90
16968;DHT22;64862;54.398;10.126;2023-03-17T06:02:14;6.00;99.90
16968;DHT22;64862;54.398;10.126;2023-03-17T06:12:17;6.10;99.90
16968;DHT22;64862;54.398;10.126;2023-03-17T06:22:19;6.10;99.90
16968;DHT22;64862;54.398;10.126;2023-03-17T06:32:23;6.20;99.90
16968;DHT22;64862;54.398;10.126;2023-03-17T06:42:24;6.50;99.90
16968;DHT22;64862;54.398;10.126;2023-03-17T06:52:28;6.90;99.90
16968;DHT22;64862;54.398;10.126;2023-03-17T07:02:31;7.00;99.90
16968;DHT22;64862;54.398;10.126;2023-03-17T07:12:34;7.30;99.90
16968;DHT22;64862;54.398;10.126;2023-03-17T07:22:36;7.80;99.90
16968;DHT22;64862;54.398;10.126;2023-03-17T07:32:40;7.90;99.90
16968;DHT22;64862;54.398;10.126;2023-03-17T07:42:45;8.80;99.90
16968;DHT22;64862;54.398;10.126;2023-03-17T07:52:48;9.70;99.90
16968;DHT22;64862;54.398;10.126;2023-03-17T08:02:50;11.30;99.90
16968;DHT22;64862;54.398;10.126;2023-03-17T08:12:54;12.60;99.90
16968;DHT22;64862;54.398;10.126;2023-03-17T08:22:56;13.00;99.90
16968;DHT22;64862;54.398;10.126;2023-03-17T08:32:59;15.40;99.90
16968;DHT22;64862;54.398;10.126;2023-03-17T08:43:01;16.70;99.90
16968;DHT22;64862;54.398;10.126;2023-03-17T08:53:05;17.00;99.90
16968;DHT22;64862;54.398;10.126;2023-03-17T09:03:08;12.90;99.90
16968;DHT22;64862;54.398;10.126;2023-03-17T09:13:11;12.90;99.90
16968;DHT22;64862;54.398;10.126;2023-03-17T09:23:13;18.30;99.90
16968;DHT22;64862;54.398;10.126;2023-03-17T09:33:17;17.90;99.90
16968;DHT22;64862;54.398;10.126;2023-03-17T09:43:27;14.80;99.90
16968;DHT22;64862;54.398;10.126;2023-03-17T09:53:45;13.60;99.90
16968;DHT22;64862;54.398;10.126;2023-03-17T10:03:49;14.60;99.90
16968;DHT22;64862;54.398;10.126;2023-03-17T10:13:56;14.10;99.90
16968;DHT22;64862;54.398;10.126;2023-03-17T10:24:02;13.30;99.90
16968;DHT22;64862;54.398;10.126;2023-03-17T10:34:12;14.10;99.90
16968;DHT22;64862;54.398;10.126;2023-03-17T10:44:21;13.50;99.90
16968;DHT22;64862;54.398;10.126;2023-03-17T10:54:25;13.40;99.90
16968;DHT22;64862;54.398;10.126;2023-03-17T11:04:31;13.50;99.90
16968;DHT22;64862;54.398;10.126;2023-03-17T11:14:36;14.50;99.90
16968;DHT22;64862;54.398;10.126;2023-03-17T11:24:46;14.60;99.90
16968;DHT22;64862;54.398;10.126;2023-03-17T11:35:06;14.00;99.90
16968;DHT22;64862;54.398;10.126;2023-03-17T11:45:16;13.60;99.90
16968;DHT22;64862;54.398;10.126;2023-03-17T11:55:24;13.50;99.90
16968;DHT22;64862;54.398;10.126;2023-03-17T12:05:27;13.50;99.90
16968;DHT22;64862;54.398;10.126;2023-03-17T12:15:35;13.70;99.90
16968;DHT22;64862;54.398;10.126;2023-03-17T12:25:47;13.90;99.90
16968;DHT22;64862;54.398;10.126;2023-03-17T12:35:52;14.60;99.90
16968;DHT22;64862;54.398;10.126;2023-03-17T12:56:32;14.30;99.90
16968;DHT22;64862;54.398;10.126;2023-03-17T13:06:39;14.50;99.90
16968;DHT22;64862;54.398;10.126;2023-03-17T13:16:45;14.80;99.90
16968;DHT22;64862;54.398;10.126;2023-03-17T13:26:56;15.00;99.90
16968;DHT22;64862;54.398;10.126;2023-03-17T13:37:12;15.20;99.90
16968;DHT22;64862;54.398;10.126;2023-03-17T13:47:30;15.20;99.90
16968;DHT22;64862;54.398;10.126;2023-03-17T13:57:36;15.10;99.90
16968;DHT22;64862;54.398;10.126;2023-03-17T14:07:43;14.90;99.90
16968;DHT22;64862;54.398;10.126;2023-03-17T14:17:52;14.90;99.90
16968;DHT22;64862;54.398;10.126;2023-03-17T14:27:56;15.00;99.90
16968;DHT22;64862;54.398;10.126;2023-03-17T14:38:01;15.70;99.90
16968;DHT22;64862;54.398;10.126;2023-03-17T14:48:03;15.70;99.90
16968;DHT22;64862;54.398;10.126;2023-03-17T14:58:08;15.70;99.90
16968;DHT22;64862;54.398;10.126;2023-03-17T15:08:43;15.70;99.90
16968;DHT22;64862;54.398;10.126;2023-03-17T15:19:02;15.80;99.90
16968;DHT22;64862;54.398;10.126;2023-03-17T15:29:05;15.60;99.90
16968;DHT22;64862;54.398;10.126;2023-03-17T15:39:09;15.30;99.90
16968;DHT22;64862;54.398;10.126;2023-03-17T15:49:11;14.90;99.90
16968;DHT22;64862;54.398;10.126;2023-03-17T15:59:14;14.70;99.90
16968;DHT22;64862;54.398;10.126;2023-03-17T16:09:16;14.50;99.90
16968;DHT22;64862;54.398;10.126;2023-03-17T16:19:21;14.20;99.90
16968;DHT22;64862;54.398;10.126;2023-03-17T16:29:24;13.90;99.90
16968;DHT22;64862;54.398;10.126;2023-03-17T16:39:28;13.80;99.90
16968;DHT22;64862;54.398;10.126;2023-03-17T16:49:32;13.60;99.90
16968;DHT22;64862;54.398;10.126;2023-03-17T16:59:35;13.50;99.90
16968;DHT22;64862;54.398;10.126;2023-03-17T17:09:37;13.30;99.90
16968;DHT22;64862;54.398;10.126;2023-03-17T17:19:40;13.00;99.90
16968;DHT22;64862;54.398;10.126;2023-03-17T17:29:42;12.80;99.90
16968;DHT22;64862;54.398;10.126;2023-03-17T17:39:46;12.40;99.90
16968;DHT22;64862;54.398;10.126;2023-03-17T17:49:48;12.10;99.90
16968;DHT22;64862;54.398;10.126;2023-03-17T17:59:52;11.90;99.90
16968;DHT22;64862;54.398;10.126;2023-03-17T18:09:54;11.60;99.90
16968;DHT22;64862;54.398;10.126;2023-03-17T18:19:57;11.30;99.90
16968;DHT22;64862;54.398;10.126;2023-03-17T18:29:59;11.10;99.90
16968;DHT22;64862;54.398;10.126;2023-03-17T18:40:03;11.10;99.90
16968;DHT22;64862;54.398;10.126;2023-03-17T18:50:08;11.10;99.90
16968;DHT22;64862;54.398;10.126;2023-03-17T19:00:14;11.10;99.90
16968;DHT22;64862;54.398;10.126;2023-03-17T19:10:17;11.10;99.90
16968;DHT22;64862;54.398;10.126;2023-03-17T19:20:20;11.20;99.90
16968;DHT22;64862;54.398;10.126;2023-03-17T19:30:22;11.20;99.90
16968;DHT22;64862;54.398;10.126;2023-03-17T19:40:26;11.30;99.90
16968;DHT22;64862;54.398;10.126;2023-03-17T19:50:29;11.40;99.90
16968;DHT22;64862;54.398;10.126;2023-03-17T20:00:33;11.60;99.90
16968;DHT22;64862;54.398;10.126;2023-03-17T20:10:35;11.30;99.90
16968;DHT22;64862;54.398;10.126;2023-03-17T20:20:41;10.80;99.90
16968;DHT22;64862;54.398;10.126;2023-03-17T20:30:47;10.60;99.90
16968;DHT22;64862;54.398;10.126;2023-03-17T20:40:51;10.40;99.90
16968;DHT22;64862;54.398;10.126;2023-03-17T20:50:53;10.20;99.90
16968;DHT22;64862;54.398;10.126;2023-03-17T21:00:56;10.20;99.90
16968;DHT22;64862;54.398;10.126;2023-03-17T21:11:01;10.10;99.90
16968;DHT22;64862;54.398;10.126;2023-03-17T21:21:04;10.10;99.90
16968;DHT22;64862;54.398;10.126;2023-03-17T21:31:06;10.20;99.90
16968;DHT22;64862;54.398;10.126;2023-03-17T21:41:21;10.40;99.90
16968;DHT22;64862;54.398;10.126;2023-03-17T21:51:29;10.30;99.90
16968;DHT22;64862;54.398;10.126;2023-03-17T22:01:33;10.20;99.90
16968;DHT22;64862;54.398;10.126;2023-03-17T22:11:35;10.30;99.90
16968;DHT22;64862;54.398;10.126;2023-03-17T22:21:39;10.40;99.90
16968;DHT22;64862;54.398;10.126;2023-03-17T22:31:41;11.10;99.90
16968;DHT22;64862;54.398;10.126;2023-03-17T22:41:45;11.30;99.90
16968;DHT22;64862;54.398;10.126;2023-03-17T22:51:47;11.40;99.90
16968;DHT22;64862;54.398;10.126;2023-03-17T23:01:51;11.30;99.90
16968;DHT22;64862;54.398;10.126;2023-03-17T23:11:53;11.30;99.90
16968;DHT22;64862;54.398;10.126;2023-03-17T23:21:56;11.50;99.90
16968;DHT22;64862;54.398;10.126;2023-03-17T23:31:58;11.40;99.90
16968;DHT22;64862;54.398;10.126;2023-03-17T23:42:02;11.20;99.90
16968;DHT22;64862;54.398;10.126;2023-03-17T23:52:04;11.20;99.90
